ftmx55

TAF MMAN 090424Z 0906/1006 00000KT P6SM SKC 
         FM091000 12005KT 3SM HZ BKN015 
         TEMPO 0911/0915 3SM BR BKN010 
         FM091600 15005KT 5SM HZ SCT015 
         FM100300 14005KT P6SM SCT200=
TAF MMCS 090424Z 0906/1006 00000KT P6SM SCT100 
         FM091600 24015KT P6SM SCT100 BKN250 
         FM100300 00000KT P6SM SCT100 SCT200=
TAF MMCU 090424Z 0906/1006 22005KT P6SM SCT090 BKN200 
         FM091800 24015KT P6SM BKN080 BKN200 
         TEMPO 0921/1001 24015G25KT=
TAF MMMY 090424Z 0906/1012 12005KT P6SM SCT015 TX27/0921Z TN10/0911Z 
         TEMPO 0911/0915 5SM HZ BKN010 
         FM091600 15005KT P6SM SCT200 
         FM100300 13005KT P6SM BKN200=
TAF MMTC 090424Z 0906/1006 00000KT P6SM SCT200 
         FM091800 22010KT P6SM SCT100 
         FM100300 00000KT P6SM SCT100=
TAF MMIO 090424Z 0906/1006 00000KT P6SM SKC 
         FM091800 24010KT P6SM SCT220 
         FM100300 00000KT P6SM SKC=
TAF MMMV 090424Z 0906/1006 00000KT P6SM SCT200 
         FM091800 24010KT P6SM SCT200 
         FM100300 00000KT P6SM SKC=